HAHBL LHBP-LHDC
Flight info
| Callsign | HAHBL |
|---|---|
| Flight time | N/A |
| Altitude | 2000 |
| Route | LHBP/13R LHBP |
| Aircraft | C152/L-SDE2E3FGHIJ1RWXY/LB1 |
Departure
| Time | N/A |
|---|---|
| Airport | Budapest Liszt Ferenc International Airport (LHBP) |
Arrival
| Time | 2026-04-11 19:12 |
|---|---|
| Airport | Debrecen International Airport (LHDC) |
| Time | Latitude | Longitude | Altitude | Speed | Heading |
|---|---|---|---|---|---|
| 2026-04-11 18:46 | 47.46450 | 20.52229 | 1343 ft | 104 kts | 87° |
| 2026-04-11 18:46 | 47.46487 | 20.53291 | 1351 ft | 104 kts | 87° |
| 2026-04-11 18:46 | 47.46524 | 20.54354 | 1357 ft | 104 kts | 87° |
| 2026-04-11 18:46 | 47.46561 | 20.55418 | 1363 ft | 104 kts | 87° |
| 2026-04-11 18:47 | 47.46598 | 20.56481 | 1372 ft | 104 kts | 87° |
| 2026-04-11 18:47 | 47.46636 | 20.57544 | 1381 ft | 104 kts | 87° |
| 2026-04-11 18:47 | 47.46673 | 20.58608 | 1388 ft | 104 kts | 87° |
| 2026-04-11 18:47 | 47.46710 | 20.59670 | 1394 ft | 104 kts | 87° |
| 2026-04-11 18:48 | 47.46748 | 20.60733 | 1401 ft | 104 kts | 87° |
| 2026-04-11 18:48 | 47.46785 | 20.61798 | 1410 ft | 104 kts | 87° |
| 2026-04-11 18:48 | 47.46822 | 20.62861 | 1413 ft | 104 kts | 87° |
| 2026-04-11 18:48 | 47.46860 | 20.63925 | 1418 ft | 104 kts | 87° |
| 2026-04-11 18:49 | 47.46897 | 20.64990 | 1422 ft | 104 kts | 87° |
| 2026-04-11 18:49 | 47.46934 | 20.66054 | 1425 ft | 104 kts | 87° |
| 2026-04-11 18:49 | 47.46969 | 20.67118 | 1427 ft | 103 kts | 89° |
| 2026-04-11 18:49 | 47.46962 | 20.68165 | 1413 ft | 104 kts | 92° |
| 2026-04-11 18:50 | 47.46969 | 20.69237 | 1392 ft | 104 kts | 90° |
| 2026-04-11 18:50 | 47.46939 | 20.70306 | 1372 ft | 104 kts | 96° |
| 2026-04-11 18:50 | 47.46887 | 20.71380 | 1351 ft | 105 kts | 91° |
| 2026-04-11 18:50 | 47.46891 | 20.72461 | 1345 ft | 105 kts | 89° |
| 2026-04-11 18:51 | 47.46901 | 20.73513 | 1443 ft | 95 kts | 89° |
| 2026-04-11 18:51 | 47.46909 | 20.74454 | 1567 ft | 93 kts | 89° |
| 2026-04-11 18:51 | 47.46919 | 20.75459 | 1544 ft | 102 kts | 89° |
| 2026-04-11 18:51 | 47.46928 | 20.76535 | 1500 ft | 106 kts | 89° |
| 2026-04-11 18:52 | 47.46936 | 20.77623 | 1490 ft | 105 kts | 89° |
| 2026-04-11 18:52 | 47.46944 | 20.78696 | 1499 ft | 104 kts | 89° |
| 2026-04-11 18:52 | 47.46952 | 20.79759 | 1509 ft | 103 kts | 89° |
| 2026-04-11 18:52 | 47.46959 | 20.80823 | 1512 ft | 104 kts | 89° |
| 2026-04-11 18:53 | 47.46969 | 20.81890 | 1511 ft | 104 kts | 89° |
| 2026-04-11 18:53 | 47.46980 | 20.82958 | 1512 ft | 104 kts | 89° |
| 2026-04-11 18:53 | 47.46986 | 20.84024 | 1512 ft | 104 kts | 91° |
| 2026-04-11 18:53 | 47.46956 | 20.85090 | 1506 ft | 104 kts | 91° |
| 2026-04-11 18:54 | 47.46956 | 20.86161 | 1502 ft | 104 kts | 89° |
| 2026-04-11 18:54 | 47.46964 | 20.87233 | 1504 ft | 104 kts | 89° |
| 2026-04-11 18:54 | 47.46965 | 20.88298 | 1509 ft | 104 kts | 91° |
| 2026-04-11 18:54 | 47.46959 | 20.89363 | 1509 ft | 104 kts | 90° |
| 2026-04-11 18:55 | 47.46965 | 20.90434 | 1510 ft | 104 kts | 89° |
| 2026-04-11 18:55 | 47.46972 | 20.91500 | 1512 ft | 104 kts | 89° |
| 2026-04-11 18:55 | 47.46978 | 20.92568 | 1514 ft | 104 kts | 89° |
| 2026-04-11 18:55 | 47.46985 | 20.93635 | 1518 ft | 104 kts | 89° |
| 2026-04-11 18:56 | 47.46991 | 20.94703 | 1521 ft | 104 kts | 89° |
| 2026-04-11 18:56 | 47.46999 | 20.95770 | 1523 ft | 104 kts | 89° |
| 2026-04-11 18:56 | 47.47010 | 20.96838 | 1527 ft | 104 kts | 89° |
| 2026-04-11 18:56 | 47.47021 | 20.97905 | 1526 ft | 104 kts | 89° |
| 2026-04-11 18:57 | 47.47032 | 20.98958 | 1529 ft | 104 kts | 89° |
| 2026-04-11 18:57 | 47.47043 | 21.00025 | 1529 ft | 104 kts | 89° |
| 2026-04-11 18:57 | 47.47054 | 21.01093 | 1530 ft | 104 kts | 89° |
| 2026-04-11 18:57 | 47.47065 | 21.02159 | 1531 ft | 104 kts | 89° |
| 2026-04-11 18:58 | 47.47075 | 21.03227 | 1532 ft | 104 kts | 89° |
| 2026-04-11 18:58 | 47.47086 | 21.04295 | 1533 ft | 104 kts | 89° |
| 2026-04-11 18:58 | 47.47097 | 21.05363 | 1533 ft | 104 kts | 89° |
| 2026-04-11 18:58 | 47.47108 | 21.06431 | 1535 ft | 104 kts | 89° |
| 2026-04-11 18:59 | 47.47119 | 21.07497 | 1536 ft | 104 kts | 89° |
| 2026-04-11 18:59 | 47.47130 | 21.08565 | 1533 ft | 104 kts | 89° |
| 2026-04-11 18:59 | 47.47141 | 21.09633 | 1537 ft | 104 kts | 89° |
| 2026-04-11 18:59 | 47.47152 | 21.10673 | 1641 ft | 94 kts | 89° |
| 2026-04-11 19:00 | 47.47161 | 21.11617 | 1752 ft | 94 kts | 89° |
| 2026-04-11 19:00 | 47.47169 | 21.12629 | 1719 ft | 103 kts | 90° |
| 2026-04-11 19:00 | 47.47172 | 21.13710 | 1669 ft | 106 kts | 90° |
| 2026-04-11 19:00 | 47.47179 | 21.14802 | 1655 ft | 106 kts | 89° |
| 2026-04-11 19:01 | 47.47187 | 21.15877 | 1660 ft | 104 kts | 89° |
| 2026-04-11 19:01 | 47.47198 | 21.16943 | 1665 ft | 104 kts | 89° |
| 2026-04-11 19:01 | 47.47208 | 21.18009 | 1661 ft | 104 kts | 89° |
| 2026-04-11 19:01 | 47.47217 | 21.19078 | 1667 ft | 104 kts | 89° |
| 2026-04-11 19:02 | 47.47233 | 21.20145 | 1656 ft | 104 kts | 89° |
| 2026-04-11 19:02 | 47.47246 | 21.21216 | 1650 ft | 104 kts | 89° |
| 2026-04-11 19:02 | 47.47257 | 21.22288 | 1648 ft | 104 kts | 89° |
| 2026-04-11 19:02 | 47.47268 | 21.23358 | 1648 ft | 104 kts | 89° |
| 2026-04-11 19:03 | 47.47278 | 21.24427 | 1649 ft | 104 kts | 89° |
| 2026-04-11 19:03 | 47.47293 | 21.25495 | 1644 ft | 104 kts | 88° |
| 2026-04-11 19:03 | 47.47308 | 21.26563 | 1638 ft | 104 kts | 89° |
| 2026-04-11 19:03 | 47.47344 | 21.27630 | 1629 ft | 104 kts | 83° |
| 2026-04-11 19:04 | 47.47381 | 21.28339 | 1616 ft | 105 kts | 87° |
| 2026-04-11 19:04 | 47.47458 | 21.29410 | 1589 ft | 105 kts | 85° |
| 2026-04-11 19:04 | 47.47514 | 21.30486 | 1570 ft | 105 kts | 86° |
| 2026-04-11 19:04 | 47.47555 | 21.31557 | 1562 ft | 104 kts | 88° |
| 2026-04-11 19:05 | 47.47569 | 21.32267 | 1560 ft | 104 kts | 88° |
| 2026-04-11 19:05 | 47.47595 | 21.33698 | 1562 ft | 104 kts | 88° |
| 2026-04-11 19:05 | 47.47614 | 21.34766 | 1561 ft | 104 kts | 88° |
| 2026-04-11 19:05 | 47.47633 | 21.35833 | 1563 ft | 104 kts | 88° |
| 2026-04-11 19:06 | 47.47651 | 21.36902 | 1565 ft | 104 kts | 88° |
| 2026-04-11 19:06 | 47.47669 | 21.37970 | 1566 ft | 104 kts | 88° |
| 2026-04-11 19:06 | 47.47688 | 21.39038 | 1565 ft | 104 kts | 88° |
| 2026-04-11 19:06 | 47.47707 | 21.40107 | 1567 ft | 104 kts | 88° |
| 2026-04-11 19:07 | 47.47725 | 21.41174 | 1569 ft | 104 kts | 89° |
| 2026-04-11 19:07 | 47.47739 | 21.42243 | 1570 ft | 104 kts | 89° |
| 2026-04-11 19:07 | 47.47753 | 21.43312 | 1571 ft | 104 kts | 89° |
| 2026-04-11 19:07 | 47.47770 | 21.44380 | 1571 ft | 104 kts | 89° |
| 2026-04-11 19:08 | 47.47784 | 21.45450 | 1572 ft | 104 kts | 89° |
| 2026-04-11 19:08 | 47.47798 | 21.46519 | 1573 ft | 104 kts | 89° |
| 2026-04-11 19:08 | 47.47812 | 21.47586 | 1573 ft | 104 kts | 89° |
| 2026-04-11 19:08 | 47.47841 | 21.48652 | 1571 ft | 104 kts | 85° |
| 2026-04-11 19:09 | 47.47894 | 21.49719 | 1564 ft | 104 kts | 86° |
| 2026-04-11 19:09 | 47.47939 | 21.50795 | 1509 ft | 108 kts | 88° |
| 2026-04-11 19:09 | 47.47985 | 21.51929 | 1376 ft | 113 kts | 86° |
| 2026-04-11 19:09 | 47.48032 | 21.53109 | 1219 ft | 116 kts | 87° |
| 2026-04-11 19:10 | 47.48068 | 21.54279 | 1152 ft | 111 kts | 88° |
| 2026-04-11 19:10 | 47.48064 | 21.55375 | 1179 ft | 103 kts | 95° |
| 2026-04-11 19:10 | 47.48040 | 21.56461 | 1101 ft | 103 kts | 91° |
| 2026-04-11 19:10 | 47.47904 | 21.57488 | 999 ft | 105 kts | 114° |
| 2026-04-11 19:11 | 47.47656 | 21.58380 | 850 ft | 86 kts | 97° |
| 2026-04-11 19:11 | 47.47722 | 21.59230 | 624 ft | 82 kts | 70° |
| 2026-04-11 19:11 | 47.47951 | 21.59968 | 447 ft | 72 kts | 58° |
| 2026-04-11 19:11 | 47.48244 | 21.60493 | 372 ft | 61 kts | 45° |
| 2026-04-11 19:12 | 47.48515 | 21.60933 | 357 ft | 56 kts | 50° |
| 2026-04-11 19:12 | 47.48713 | 21.61252 | 357 ft | 30 kts | 47° |
| 2026-04-11 19:12 | 47.48873 | 21.61468 | 360 ft | 41 kts | 36° |